createdAt,value
2022-09-29T00:01:21.849Z,21.60
2022-09-29T00:03:50.305Z,21.40
2022-09-29T00:06:19.734Z,21.50
2022-09-29T00:08:48.618Z,21.60
2022-09-29T00:11:20.974Z,21.70
2022-09-29T00:13:50.321Z,21.70
2022-09-29T00:16:18.980Z,21.70
2022-09-29T00:18:47.708Z,21.60
2022-09-29T00:21:22.910Z,21.70
2022-09-29T00:23:52.027Z,21.40
2022-09-29T00:26:23.027Z,21.60
2022-09-29T00:28:59.657Z,21.40
2022-09-29T00:31:31.804Z,21.50
2022-09-29T00:34:00.575Z,21.50
2022-09-29T00:36:32.249Z,21.50
2022-09-29T00:39:01.108Z,21.50
2022-09-29T00:41:34.625Z,21.30
2022-09-29T00:44:13.515Z,21.00
2022-09-29T00:46:51.532Z,21.00
2022-09-29T00:49:44.682Z,20.90
2022-09-29T00:52:22.181Z,21.00
2022-09-29T00:54:57.450Z,20.90
2022-09-29T00:57:30.582Z,20.80
2022-09-29T01:00:11.134Z,20.70
2022-09-29T01:02:51.131Z,20.70
2022-09-29T01:05:29.673Z,20.70
2022-09-29T01:07:58.278Z,20.70
2022-09-29T01:10:28.279Z,20.80
2022-09-29T01:12:57.360Z,20.80
2022-09-29T01:15:26.149Z,20.80
2022-09-29T01:17:54.516Z,20.70
2022-09-29T01:20:24.039Z,20.80
2022-09-29T01:23:47.956Z,20.70
2022-09-29T01:26:29.354Z,20.60
2022-09-29T01:29:23.820Z,20.50
2022-09-29T01:32:21.579Z,20.60
2022-09-29T01:35:25.315Z,20.60
2022-09-29T01:37:59.885Z,20.60
2022-09-29T01:40:44.086Z,20.40
2022-09-29T01:44:05.127Z,20.40
2022-09-29T01:46:48.520Z,20.40
2022-09-29T01:49:18.976Z,20.40
2022-09-29T01:52:09.189Z,20.50
2022-09-29T01:54:55.905Z,20.20
2022-09-29T01:57:49.242Z,20.10
2022-09-29T02:00:20.141Z,19.90
2022-09-29T02:02:51.480Z,19.90
2022-09-29T02:05:25.832Z,19.80
2022-09-29T02:07:56.646Z,19.80
2022-09-29T02:10:31.234Z,19.80
2022-09-29T02:13:02.011Z,19.70
2022-09-29T02:15:37.659Z,19.60
2022-09-29T02:18:14.531Z,19.70
2022-09-29T02:20:43.005Z,19.80
2022-09-29T02:23:11.878Z,19.60
2022-09-29T02:25:41.490Z,19.70
2022-09-29T02:28:10.397Z,19.80
2022-09-29T02:30:38.803Z,19.70
2022-09-29T02:33:07.266Z,19.70
2022-09-29T02:35:59.373Z,19.70
2022-09-29T02:38:45.792Z,19.80
2022-09-29T02:41:21.375Z,19.80
2022-09-29T02:43:59.056Z,19.80
2022-09-29T02:46:33.392Z,19.80
2022-09-29T02:49:20.752Z,19.70
2022-09-29T02:52:09.166Z,19.70
2022-09-29T02:55:08.869Z,19.70
2022-09-29T02:58:02.847Z,19.70
2022-09-29T03:00:32.442Z,19.60
2022-09-29T03:03:00.882Z,19.50
2022-09-29T03:05:29.463Z,19.40
2022-09-29T03:07:57.862Z,19.40
2022-09-29T03:10:30.041Z,19.30
2022-09-29T03:12:59.073Z,19.30
2022-09-29T03:15:27.466Z,19.30
2022-09-29T03:17:58.799Z,19.30
2022-09-29T03:20:27.391Z,19.30
2022-09-29T03:22:59.590Z,19.20
2022-09-29T03:25:28.100Z,19.30
2022-09-29T03:27:56.450Z,19.20
2022-09-29T03:30:24.890Z,19.20
2022-09-29T03:32:53.620Z,19.00
2022-09-29T03:35:22.070Z,18.80
2022-09-29T03:37:50.435Z,18.70
2022-09-29T03:40:18.922Z,18.60
2022-09-29T03:42:48.221Z,18.50
2022-09-29T03:45:16.924Z,18.30
2022-09-29T03:47:45.379Z,18.20
2022-09-29T03:50:15.382Z,18.20
2022-09-29T03:52:43.720Z,17.90
2022-09-29T03:55:12.263Z,18.00
2022-09-29T03:57:40.633Z,17.90
2022-09-29T04:00:09.655Z,18.00
2022-09-29T04:02:38.104Z,17.80
2022-09-29T04:05:06.973Z,17.90
2022-09-29T04:07:35.417Z,17.90
2022-09-29T04:10:03.946Z,17.80
2022-09-29T04:12:32.339Z,17.80
2022-09-29T04:15:00.976Z,17.80
2022-09-29T04:17:29.481Z,17.70
2022-09-29T04:19:58.489Z,17.70
2022-09-29T04:22:26.865Z,17.80
2022-09-29T04:24:55.245Z,17.80
2022-09-29T04:27:24.098Z,17.70
2022-09-29T04:29:52.421Z,17.80
2022-09-29T04:32:21.749Z,17.90
2022-09-29T04:34:50.110Z,17.80
2022-09-29T04:37:18.474Z,17.70
2022-09-29T04:39:46.804Z,17.60
2022-09-29T04:42:15.162Z,17.60
2022-09-29T04:44:43.502Z,17.70
2022-09-29T04:47:11.913Z,17.60
2022-09-29T04:49:40.351Z,17.50
2022-09-29T04:52:08.691Z,17.40
2022-09-29T04:54:38.198Z,17.40
2022-09-29T04:57:07.295Z,17.30
2022-09-29T04:59:35.631Z,17.40
2022-09-29T05:02:04.213Z,17.30
2022-09-29T05:04:32.670Z,17.20
2022-09-29T05:07:00.987Z,17.20
2022-09-29T05:09:33.335Z,17.20
2022-09-29T05:12:02.910Z,17.20
2022-09-29T05:14:31.301Z,17.20
2022-09-29T05:17:00.415Z,17.00
2022-09-29T05:19:28.735Z,17.00
2022-09-29T05:21:57.229Z,17.00
2022-09-29T05:24:26.277Z,16.90
2022-09-29T05:26:58.435Z,16.70
2022-09-29T05:29:27.307Z,16.70
2022-09-29T05:31:55.722Z,16.70
2022-09-29T05:34:24.092Z,16.80
2022-09-29T05:36:52.472Z,16.80
2022-09-29T05:39:21.745Z,16.70
2022-09-29T05:41:50.407Z,16.60
2022-09-29T05:44:18.986Z,16.60
2022-09-29T05:46:47.411Z,16.70
2022-09-29T05:49:15.883Z,16.60
2022-09-29T05:51:44.246Z,16.60
2022-09-29T05:54:12.566Z,16.50
2022-09-29T05:56:45.155Z,16.40
2022-09-29T05:59:14.234Z,16.40
2022-09-29T06:01:42.591Z,16.50
2022-09-29T06:04:11.051Z,16.50
2022-09-29T06:06:41.219Z,16.30
2022-09-29T06:09:09.802Z,16.30
2022-09-29T06:11:38.192Z,16.20
2022-09-29T06:14:06.561Z,16.30
2022-09-29T06:16:35.404Z,16.30
2022-09-29T06:19:04.860Z,16.40
2022-09-29T06:21:36.127Z,16.40
2022-09-29T06:24:05.059Z,16.30
2022-09-29T06:26:33.395Z,16.30
2022-09-29T06:29:02.749Z,16.20
2022-09-29T06:31:32.657Z,16.30
2022-09-29T06:34:02.817Z,16.30
2022-09-29T06:37:02.916Z,16.20
2022-09-29T06:39:31.905Z,16.30
2022-09-29T06:42:00.510Z,16.20
2022-09-29T06:44:30.888Z,16.00
2022-09-29T06:46:59.802Z,16.00
2022-09-29T06:49:28.474Z,16.10
2022-09-29T06:51:57.993Z,16.10
2022-09-29T06:54:26.431Z,16.10
2022-09-29T06:56:56.183Z,16.10
2022-09-29T06:59:24.639Z,16.10
2022-09-29T07:01:53.208Z,16.30
2022-09-29T07:04:22.635Z,16.20
2022-09-29T07:06:51.570Z,16.30
2022-09-29T07:09:21.135Z,16.30
2022-09-29T07:11:51.746Z,16.30
2022-09-29T07:14:23.555Z,16.40
2022-09-29T07:16:52.844Z,16.40
2022-09-29T07:19:21.491Z,16.50
2022-09-29T07:21:50.113Z,16.50
2022-09-29T07:24:18.541Z,16.50
2022-09-29T07:26:46.910Z,16.60
2022-09-29T07:29:15.987Z,16.60
2022-09-29T07:31:51.866Z,16.70
2022-09-29T07:34:22.006Z,16.70
2022-09-29T07:36:50.652Z,16.70
2022-09-29T07:39:21.341Z,16.70
2022-09-29T07:41:50.579Z,16.70
2022-09-29T07:44:19.071Z,16.50
2022-09-29T07:46:49.473Z,16.60
2022-09-29T07:49:18.018Z,16.60
2022-09-29T07:51:47.748Z,16.50
2022-09-29T07:54:16.467Z,16.50
2022-09-29T07:56:45.039Z,16.40
2022-09-29T07:59:13.691Z,16.40
2022-09-29T08:01:42.058Z,16.30
2022-09-29T08:04:11.034Z,16.20
2022-09-29T08:06:40.809Z,16.10
2022-09-29T08:09:09.184Z,16.10
2022-09-29T08:11:40.509Z,16.00
2022-09-29T08:14:10.751Z,15.90
2022-09-29T08:16:40.097Z,15.90
2022-09-29T08:19:08.972Z,15.90
2022-09-29T08:21:38.004Z,15.90
2022-09-29T08:24:07.666Z,15.80
2022-09-29T08:26:44.195Z,15.80
2022-09-29T08:29:16.748Z,15.90
2022-09-29T08:31:46.741Z,16.00
2022-09-29T08:34:16.263Z,15.90
2022-09-29T08:36:44.934Z,15.90
2022-09-29T08:39:13.911Z,15.90
2022-09-29T08:42:12.746Z,15.90
2022-09-29T08:45:16.692Z,16.10
2022-09-29T08:47:52.152Z,16.10
2022-09-29T08:50:36.662Z,15.90
2022-09-29T08:53:24.172Z,15.90
2022-09-29T08:56:16.810Z,16.00
2022-09-29T08:58:45.942Z,15.90
2022-09-29T09:01:30.853Z,16.00
2022-09-29T09:04:20.207Z,15.90
2022-09-29T09:07:09.482Z,16.10
2022-09-29T09:09:56.793Z,16.00
2022-09-29T09:12:40.544Z,16.00
2022-09-29T09:15:38.735Z,16.00
2022-09-29T09:18:31.589Z,16.10
2022-09-29T09:21:11.544Z,16.10
2022-09-29T09:24:02.880Z,16.10
2022-09-29T09:26:43.311Z,16.10
2022-09-29T09:29:33.804Z,16.10
2022-09-29T09:32:10.351Z,16.10
2022-09-29T09:34:50.139Z,16.00
2022-09-29T09:37:33.505Z,16.00
2022-09-29T09:40:22.370Z,15.90
2022-09-29T09:43:39.646Z,15.80
2022-09-29T09:46:46.090Z,15.80
2022-09-29T09:49:33.473Z,15.80
2022-09-29T09:52:04.759Z,15.70
2022-09-29T09:54:36.257Z,15.70
2022-09-29T09:57:32.378Z,15.60
2022-09-29T10:00:15.812Z,15.50
2022-09-29T10:02:54.774Z,15.50
2022-09-29T10:05:25.832Z,15.50
2022-09-29T10:07:54.991Z,15.50
2022-09-29T10:10:29.650Z,15.40
2022-09-29T10:13:06.830Z,15.50
2022-09-29T10:15:55.665Z,15.50
2022-09-29T10:18:29.958Z,15.50
2022-09-29T10:20:58.333Z,15.50
2022-09-29T10:23:30.981Z,15.50
2022-09-29T10:26:17.539Z,15.50
2022-09-29T10:28:51.577Z,15.50
2022-09-29T10:31:27.866Z,15.50
2022-09-29T10:34:02.904Z,15.50
2022-09-29T10:36:34.896Z,15.50
2022-09-29T10:39:03.693Z,15.50
2022-09-29T10:41:54.031Z,15.50
2022-09-29T10:44:23.353Z,15.50
2022-09-29T10:46:59.874Z,15.50
2022-09-29T10:49:30.099Z,15.50
2022-09-29T10:52:06.099Z,15.50
2022-09-29T10:54:37.965Z,15.50
2022-09-29T10:57:17.313Z,15.60
2022-09-29T10:59:53.992Z,15.60
2022-09-29T11:02:39.679Z,15.60
2022-09-29T11:05:21.150Z,15.60
2022-09-29T11:07:53.367Z,15.60
2022-09-29T11:10:40.407Z,15.60
2022-09-29T11:13:21.039Z,15.60
2022-09-29T11:15:50.086Z,15.60
2022-09-29T11:18:25.764Z,15.60
2022-09-29T11:21:12.491Z,15.60
2022-09-29T11:23:47.757Z,15.60
2022-09-29T11:26:41.960Z,15.60
2022-09-29T11:29:38.949Z,15.60
2022-09-29T11:32:19.946Z,15.60
2022-09-29T11:35:07.026Z,15.70
2022-09-29T11:38:23.069Z,15.70
2022-09-29T11:41:30.965Z,15.60
2022-09-29T11:44:34.114Z,15.50
2022-09-29T11:47:21.562Z,15.50
2022-09-29T11:50:00.454Z,15.50
2022-09-29T11:52:50.193Z,15.60
2022-09-29T11:55:52.602Z,15.70
2022-09-29T11:58:32.795Z,15.70
2022-09-29T12:01:30.855Z,15.70
2022-09-29T12:04:20.754Z,15.70
2022-09-29T12:07:08.606Z,15.70
2022-09-29T12:09:43.228Z,15.70
2022-09-29T12:12:24.124Z,15.70
2022-09-29T12:15:08.772Z,15.80
2022-09-29T12:17:45.270Z,15.70
2022-09-29T12:20:30.872Z,15.70
2022-09-29T12:23:03.954Z,15.80
2022-09-29T12:25:36.851Z,15.80
2022-09-29T12:28:18.519Z,15.80
2022-09-29T12:30:56.987Z,15.80
2022-09-29T12:33:39.036Z,15.70
2022-09-29T12:36:41.558Z,15.90
2022-09-29T12:39:43.391Z,15.80
2022-09-29T12:42:30.249Z,15.80
2022-09-29T12:45:35.164Z,15.90
2022-09-29T12:48:18.693Z,15.80
2022-09-29T12:50:52.631Z,15.90
2022-09-29T12:53:36.925Z,16.00
2022-09-29T12:56:25.936Z,16.00
2022-09-29T12:59:10.361Z,15.90
2022-09-29T13:01:39.618Z,15.90
2022-09-29T13:04:24.310Z,15.90
2022-09-29T13:07:08.274Z,15.90
2022-09-29T13:10:00.975Z,15.90
2022-09-29T13:13:02.450Z,15.80
2022-09-29T13:15:46.205Z,15.90
2022-09-29T13:18:33.257Z,15.90
2022-09-29T13:21:22.869Z,15.90
2022-09-29T13:24:14.806Z,15.90
2022-09-29T13:26:52.355Z,15.80
2022-09-29T13:29:28.813Z,15.90
2022-09-29T13:31:59.130Z,15.90
2022-09-29T13:34:39.152Z,15.90
2022-09-29T13:37:18.602Z,15.90
2022-09-29T13:40:10.579Z,15.90
2022-09-29T13:42:45.698Z,16.00
2022-09-29T13:45:17.306Z,16.10
2022-09-29T13:47:57.526Z,16.00
2022-09-29T13:50:51.313Z,16.00
2022-09-29T13:53:34.868Z,16.00
2022-09-29T13:56:06.233Z,16.10
2022-09-29T13:59:01.787Z,16.10
2022-09-29T14:01:39.020Z,16.00
2022-09-29T14:04:38.222Z,16.00
2022-09-29T14:07:08.837Z,16.00
2022-09-29T14:09:42.986Z,16.10
2022-09-29T14:12:23.208Z,16.20
2022-09-29T14:14:59.618Z,16.10
2022-09-29T14:17:37.198Z,16.10
2022-09-29T14:20:42.462Z,16.10
2022-09-29T14:23:11.894Z,16.10
2022-09-29T14:25:43.376Z,16.00
2022-09-29T14:28:24.396Z,16.10
2022-09-29T14:30:59.556Z,16.20
2022-09-29T14:33:36.461Z,16.20
2022-09-29T14:36:13.627Z,16.20
2022-09-29T14:38:57.842Z,16.20
2022-09-29T14:41:34.931Z,16.10
2022-09-29T14:44:53.601Z,16.10
2022-09-29T14:47:40.510Z,16.10
2022-09-29T14:50:51.410Z,16.20
2022-09-29T14:53:26.926Z,16.20
2022-09-29T14:56:18.734Z,16.20
2022-09-29T14:59:19.045Z,16.30
2022-09-29T15:02:20.478Z,16.30
2022-09-29T15:04:50.081Z,16.30
2022-09-29T15:07:24.762Z,16.30
2022-09-29T15:09:56.326Z,16.30
2022-09-29T15:12:30.289Z,16.40
2022-09-29T15:14:59.809Z,16.40
2022-09-29T15:17:49.536Z,16.50
2022-09-29T15:20:52.038Z,16.50
2022-09-29T15:23:34.953Z,16.40
2022-09-29T15:26:03.522Z,16.50
2022-09-29T15:28:39.943Z,16.50
2022-09-29T15:31:17.456Z,16.50
2022-09-29T15:33:47.406Z,16.60
2022-09-29T15:36:38.519Z,16.60
2022-09-29T15:39:29.419Z,16.60
2022-09-29T15:42:24.494Z,16.60
2022-09-29T15:45:01.655Z,16.60
2022-09-29T15:47:35.603Z,16.50
2022-09-29T15:50:27.609Z,16.60
2022-09-29T15:52:56.144Z,16.60
2022-09-29T15:55:26.030Z,16.60
2022-09-29T15:57:55.486Z,16.60
2022-09-29T16:00:23.824Z,16.70
2022-09-29T16:03:25.048Z,16.70
2022-09-29T16:06:30.292Z,16.80
2022-09-29T16:09:02.920Z,16.90
2022-09-29T16:11:40.161Z,16.80
2022-09-29T16:14:17.659Z,16.80
2022-09-29T16:16:48.945Z,16.80
2022-09-29T16:19:31.229Z,16.80
2022-09-29T16:22:02.946Z,16.90
2022-09-29T16:24:34.781Z,16.90
2022-09-29T16:27:03.718Z,17.00
2022-09-29T16:29:38.818Z,17.00
2022-09-29T16:32:41.422Z,17.10
2022-09-29T16:35:41.853Z,17.10
2022-09-29T16:38:39.862Z,17.10
2022-09-29T16:41:36.578Z,17.30
2022-09-29T16:44:13.460Z,17.20
2022-09-29T16:46:53.521Z,17.20
2022-09-29T16:49:33.030Z,17.20
2022-09-29T16:52:13.660Z,17.10
2022-09-29T16:54:44.865Z,17.20
2022-09-29T16:57:26.569Z,17.20
2022-09-29T17:00:00.269Z,17.30
2022-09-29T17:02:29.599Z,17.20
2022-09-29T17:04:58.571Z,17.20
2022-09-29T17:07:28.418Z,17.20
2022-09-29T17:10:03.139Z,17.40
2022-09-29T17:12:32.290Z,17.40
2022-09-29T17:15:02.375Z,17.50
2022-09-29T17:17:30.870Z,17.50
2022-09-29T17:19:59.249Z,17.50
2022-09-29T17:22:32.456Z,17.60
2022-09-29T17:25:01.237Z,17.80
2022-09-29T17:28:02.378Z,17.80
2022-09-29T17:30:30.798Z,17.70
2022-09-29T17:33:00.559Z,17.70
2022-09-29T17:35:40.697Z,17.80
2022-09-29T17:38:10.314Z,17.80
2022-09-29T17:40:59.172Z,17.90
2022-09-29T17:43:27.552Z,18.10
2022-09-29T17:45:57.952Z,18.10
2022-09-29T17:48:30.949Z,18.30
2022-09-29T17:51:00.581Z,18.30
2022-09-29T17:53:28.943Z,18.20
2022-09-29T17:55:59.030Z,18.20
2022-09-29T17:58:27.417Z,18.20
2022-09-29T18:00:58.277Z,18.20
2022-09-29T18:03:26.872Z,18.20
2022-09-29T18:06:00.744Z,18.20
2022-09-29T18:08:30.273Z,18.30
2022-09-29T18:11:01.072Z,18.10
2022-09-29T18:13:34.764Z,18.20
2022-09-29T18:16:03.579Z,18.00
2022-09-29T18:18:31.970Z,18.20
2022-09-29T18:21:01.609Z,18.20
2022-09-29T18:23:29.943Z,18.40
2022-09-29T18:25:58.289Z,18.50
2022-09-29T18:28:26.691Z,18.50
2022-09-29T18:31:12.285Z,18.70
2022-09-29T18:33:41.141Z,18.60
2022-09-29T18:36:11.374Z,18.40
2022-09-29T18:38:39.780Z,18.30
2022-09-29T18:41:11.791Z,18.30
2022-09-29T18:43:40.360Z,18.00
2022-09-29T18:46:09.289Z,18.10
2022-09-29T18:48:37.701Z,18.20
2022-09-29T18:51:06.106Z,18.00
2022-09-29T18:53:34.746Z,18.20
2022-09-29T18:56:05.579Z,18.30
2022-09-29T18:58:34.212Z,18.20
2022-09-29T19:01:03.394Z,18.40
2022-09-29T19:03:32.723Z,18.70
2022-09-29T19:06:02.970Z,18.90
2022-09-29T19:08:34.250Z,18.90
2022-09-29T19:11:05.404Z,19.00
2022-09-29T19:13:33.754Z,19.00
2022-09-29T19:16:04.725Z,19.00
2022-09-29T19:18:33.099Z,19.20
2022-09-29T19:21:01.486Z,19.00
2022-09-29T19:23:30.036Z,19.10
2022-09-29T19:25:59.251Z,19.30
2022-09-29T19:28:28.312Z,19.50
2022-09-29T19:31:06.107Z,19.60
2022-09-29T19:33:35.698Z,19.80
2022-09-29T19:36:11.290Z,19.90
2022-09-29T19:38:40.792Z,19.90
2022-09-29T19:41:24.732Z,20.10
2022-09-29T19:43:53.691Z,20.40
2022-09-29T19:46:23.252Z,20.40
2022-09-29T19:48:51.869Z,20.60
2022-09-29T19:51:38.943Z,20.60
2022-09-29T19:54:18.087Z,20.50
2022-09-29T19:56:55.804Z,20.40
2022-09-29T19:59:30.178Z,20.40
2022-09-29T20:01:59.586Z,20.50
2022-09-29T20:04:31.493Z,20.70
2022-09-29T20:07:00.102Z,20.90
2022-09-29T20:09:29.185Z,21.00
2022-09-29T20:11:57.831Z,21.20
2022-09-29T20:14:28.403Z,21.20
2022-09-29T20:16:58.584Z,21.40
2022-09-29T20:19:28.758Z,21.20
2022-09-29T20:21:58.191Z,21.00
2022-09-29T20:24:26.893Z,21.30
2022-09-29T20:26:58.310Z,21.30
2022-09-29T20:29:27.336Z,21.50
2022-09-29T20:31:55.855Z,21.70
2022-09-29T20:34:24.531Z,21.40
2022-09-29T20:36:55.088Z,21.50
2022-09-29T20:39:26.071Z,21.80
2022-09-29T20:41:59.134Z,21.60
2022-09-29T20:44:28.145Z,21.50
2022-09-29T20:46:57.444Z,21.60
2022-09-29T20:49:27.281Z,21.80
2022-09-29T20:51:56.188Z,21.80
2022-09-29T20:54:24.538Z,21.90
2022-09-29T20:56:53.026Z,21.70
2022-09-29T20:59:24.012Z,21.70
2022-09-29T21:01:54.268Z,21.70
2022-09-29T21:04:23.153Z,21.60
2022-09-29T21:06:53.286Z,21.50
2022-09-29T21:09:24.368Z,21.30
2022-09-29T21:11:55.010Z,21.10
2022-09-29T21:14:28.534Z,21.30
2022-09-29T21:16:57.132Z,21.40
2022-09-29T21:19:27.336Z,21.30
2022-09-29T21:21:56.815Z,21.20
2022-09-29T21:24:25.563Z,21.30
2022-09-29T21:26:54.057Z,21.30
2022-09-29T21:29:22.843Z,21.10
2022-09-29T21:31:51.885Z,20.90
2022-09-29T21:34:20.833Z,21.00
2022-09-29T21:36:49.354Z,20.80
2022-09-29T21:39:18.118Z,20.90
2022-09-29T21:41:46.933Z,20.80
2022-09-29T21:44:17.883Z,20.70
2022-09-29T21:46:47.202Z,20.70
2022-09-29T21:49:17.132Z,20.80
2022-09-29T21:51:50.845Z,20.80
2022-09-29T21:54:21.708Z,20.90
2022-09-29T21:56:51.519Z,20.80
2022-09-29T21:59:23.059Z,20.60
2022-09-29T22:01:52.851Z,20.60
2022-09-29T22:04:21.946Z,20.50
2022-09-29T22:06:50.341Z,20.50
2022-09-29T22:09:21.375Z,20.30
2022-09-29T22:11:51.059Z,20.40
2022-09-29T22:14:19.973Z,20.70
2022-09-29T22:16:48.612Z,20.90
2022-09-29T22:19:25.015Z,20.70
2022-09-29T22:21:55.114Z,20.60
2022-09-29T22:24:24.700Z,20.60
2022-09-29T22:26:53.555Z,20.70
2022-09-29T22:29:22.489Z,20.80
2022-09-29T22:31:51.111Z,20.80
2022-09-29T22:34:19.595Z,20.90
2022-09-29T22:36:48.081Z,20.90
2022-09-29T22:39:16.467Z,20.90
2022-09-29T22:41:44.898Z,20.80
2022-09-29T22:44:13.344Z,20.80
2022-09-29T22:46:41.759Z,20.90
2022-09-29T22:49:10.205Z,20.70
2022-09-29T22:51:38.655Z,20.90
2022-09-29T22:54:07.207Z,20.90
2022-09-29T22:56:35.996Z,20.80
2022-09-29T22:59:05.965Z,20.60
2022-09-29T23:01:35.219Z,20.60
2022-09-29T23:04:04.791Z,20.70
2022-09-29T23:06:34.114Z,20.60
2022-09-29T23:09:02.592Z,20.80
2022-09-29T23:11:33.600Z,21.00
2022-09-29T23:14:02.330Z,21.20
2022-09-29T23:16:30.703Z,21.40
2022-09-29T23:18:59.726Z,21.40
2022-09-29T23:21:28.269Z,21.30
2022-09-29T23:24:00.226Z,21.00
2022-09-29T23:26:30.762Z,20.90
2022-09-29T23:29:00.649Z,21.10
2022-09-29T23:31:29.299Z,21.20
2022-09-29T23:34:00.021Z,21.10
2022-09-29T23:36:30.357Z,21.00
2022-09-29T23:39:11.318Z,21.10
2022-09-29T23:41:44.456Z,21.00
2022-09-29T23:44:15.444Z,20.70
2022-09-29T23:46:44.804Z,20.60
2022-09-29T23:49:15.814Z,20.50
2022-09-29T23:51:46.719Z,20.50
2022-09-29T23:54:18.835Z,20.40
2022-09-29T23:56:48.822Z,20.30
2022-09-29T23:59:18.099Z,20.30
